createdAt,value
2022-08-30T00:00:00.116Z,47.40
2022-08-30T00:10:00.116Z,30.80
2022-08-30T00:20:00.121Z,24.70
2022-08-30T00:30:00.138Z,44.60
2022-08-30T00:40:00.194Z,49.60
2022-08-30T00:50:00.109Z,18.30
2022-08-30T01:00:00.155Z,25.90
2022-08-30T01:10:00.108Z,25.80
2022-08-30T01:20:00.112Z,19.60
2022-08-30T01:30:00.101Z,22.80
2022-08-30T01:40:00.233Z,35.40
2022-08-30T01:50:00.099Z,27.00
2022-08-30T02:00:00.105Z,20.00
2022-08-30T02:10:00.088Z,44.40
2022-08-30T02:20:00.431Z,77.30
2022-08-30T02:30:00.099Z,12.30
2022-08-30T02:40:00.156Z,52.70
2022-08-30T02:50:00.257Z,53.20
2022-08-30T03:00:00.122Z,12.80
2022-08-30T03:10:00.077Z,11.80
2022-08-30T03:20:00.099Z,10.70
2022-08-30T03:30:00.098Z,13.90
2022-08-30T03:40:00.185Z,22.80
2022-08-30T03:50:00.073Z,15.80
2022-08-30T04:00:00.157Z,12.20
2022-08-30T04:10:00.076Z,15.80
2022-08-30T04:20:00.101Z,12.50
2022-08-30T04:30:01.494Z,30.30
2022-08-30T04:40:00.172Z,25.10
2022-08-30T04:50:00.182Z,15.20
2022-08-30T05:00:00.152Z,16.80
2022-08-30T05:10:00.125Z,13.40
2022-08-30T05:20:00.125Z,11.10
2022-08-30T05:30:00.104Z,12.90
2022-08-30T05:40:00.180Z,15.60
2022-08-30T05:50:00.139Z,15.30
2022-08-30T06:00:00.111Z,15.30
2022-08-30T06:10:00.383Z,17.20
2022-08-30T06:20:00.136Z,24.20
2022-08-30T06:30:00.134Z,13.80
2022-08-30T06:40:00.285Z,17.60
2022-08-30T06:50:01.515Z,16.80
2022-08-30T07:00:00.170Z,24.10
2022-08-30T07:10:00.151Z,23.40
2022-08-30T07:20:00.105Z,25.60
2022-08-30T07:30:00.127Z,40.90
2022-08-30T07:40:00.213Z,24.60
2022-08-30T07:50:00.106Z,33.40
2022-08-30T08:00:00.102Z,39.40
2022-08-30T08:10:00.131Z,52.10
2022-08-30T08:20:00.151Z,79.80
2022-08-30T08:30:00.104Z,70.60
2022-08-30T08:40:00.248Z,75.60
2022-08-30T08:50:00.126Z,85.80
2022-08-30T09:00:00.133Z,85.90
2022-08-30T09:10:00.158Z,142.60
2022-08-30T09:20:00.124Z,155.60
2022-08-30T09:30:00.134Z,177.80
2022-08-30T09:40:00.207Z,156.90
2022-08-30T09:50:00.128Z,185.90
2022-08-30T10:00:01.188Z,148.80
2022-08-30T10:10:00.145Z,215.00
2022-08-30T10:20:00.114Z,176.80
2022-08-30T10:30:00.279Z,185.10
2022-08-30T10:40:00.234Z,233.40
2022-08-30T10:50:00.242Z,251.80
2022-08-30T11:00:00.119Z,287.60
2022-08-30T11:10:00.159Z,291.70
2022-08-30T11:20:00.105Z,556.30
2022-08-30T11:30:00.113Z,660.10
2022-08-30T11:40:01.778Z,684.60
2022-08-30T11:50:00.120Z,680.80
2022-08-30T12:00:00.102Z,704.70
2022-08-30T12:10:00.176Z,764.60
2022-08-30T12:20:00.115Z,783.80
2022-08-30T12:30:00.126Z,744.40
2022-08-30T12:40:00.216Z,779.00
2022-08-30T12:50:00.142Z,765.20
2022-08-30T13:00:01.894Z,758.70
2022-08-30T13:10:00.152Z,782.60
2022-08-30T13:20:00.198Z,783.00
2022-08-30T13:30:00.246Z,722.70
2022-08-30T13:40:03.974Z,708.80
2022-08-30T13:50:01.685Z,684.70
2022-08-30T14:00:00.107Z,644.70
2022-08-30T14:20:00.138Z,685.20
2022-08-30T14:30:00.140Z,699.50
2022-08-30T14:40:00.206Z,750.80
2022-08-30T14:50:00.120Z,605.80
2022-08-30T15:00:00.073Z,611.20
2022-08-30T15:10:00.109Z,538.90
2022-08-30T15:20:00.119Z,622.50
2022-08-30T15:30:00.150Z,409.60
2022-08-30T15:40:00.202Z,460.80
2022-08-30T15:50:01.174Z,349.70
2022-08-30T16:00:00.111Z,520.10
2022-08-30T16:10:00.119Z,502.70
2022-08-30T16:20:02.349Z,428.40
2022-08-30T16:30:00.138Z,477.70
2022-08-30T16:40:00.255Z,369.00
2022-08-30T16:50:00.488Z,392.30
2022-08-30T17:00:01.953Z,611.90
2022-08-30T17:10:00.112Z,609.60
2022-08-30T17:20:00.143Z,540.80
2022-08-30T17:30:00.153Z,584.80
2022-08-30T17:40:00.110Z,453.00
2022-08-30T17:50:00.136Z,265.20
2022-08-30T18:00:00.117Z,213.00
2022-08-30T18:10:00.130Z,169.10
2022-08-30T18:20:00.147Z,141.20
2022-08-30T18:30:00.070Z,216.60
2022-08-30T18:40:00.873Z,124.90
2022-08-30T18:50:01.260Z,115.10
2022-08-30T19:00:00.098Z,76.00
2022-08-30T19:10:02.048Z,59.80
2022-08-30T19:20:00.126Z,117.70
2022-08-30T19:30:00.073Z,50.70
2022-08-30T19:40:00.853Z,62.90
2022-08-30T19:50:00.140Z,52.10
2022-08-30T20:00:00.114Z,35.00
2022-08-30T20:10:00.138Z,31.40
2022-08-30T20:20:00.135Z,39.00
2022-08-30T20:30:00.122Z,37.80
2022-08-30T20:40:00.206Z,30.60
2022-08-30T20:50:00.107Z,38.80
2022-08-30T21:00:00.081Z,29.40
2022-08-30T21:10:00.099Z,22.80
2022-08-30T21:20:00.131Z,40.90
2022-08-30T21:30:00.130Z,26.80
2022-08-30T21:40:00.219Z,16.30
2022-08-30T21:50:00.110Z,28.60
2022-08-30T22:00:00.141Z,14.40
2022-08-30T22:10:00.118Z,13.90
2022-08-30T22:20:00.147Z,21.40
2022-08-30T22:30:00.121Z,14.10
2022-08-30T22:40:00.148Z,96.70
2022-08-30T22:50:00.140Z,27.10
2022-08-30T23:00:00.117Z,24.90
2022-08-30T23:10:00.312Z,36.90
2022-08-30T23:20:00.166Z,22.60
2022-08-30T23:30:00.099Z,9.90
2022-08-30T23:40:00.181Z,9.60
2022-08-30T23:50:00.142Z,8.90
